Time;durP1;ratioP1;P1;durP2;ratioP2;P2;SDS_P1;SDS_P2;PMS_P1;PMS_P2;Temp;Humidity;BMP_temperature;BMP_pressure;BME280_temperature;BME280_humidity;BME280_pressure;Samples;Min_cycle;Max_cycle;Signal;HPM_P1;HPM_P2
2022/07/23 00:00:10;;;;;;;6.65;2.80;;;15.90;99.90;;;;;;6270640;22;20015;-91
2022/07/23 00:02:36;;;;;;;6.30;2.90;;;15.80;99.90;;;;;;6271272;22;19996;-85
2022/07/23 00:05:03;;;;;;;4.35;2.85;;;15.70;99.90;;;;;;6270835;22;20000;-90
2022/07/23 00:07:29;;;;;;;6.95;2.47;;;15.70;99.90;;;;;;6271111;22;19996;-89
2022/07/23 00:09:54;;;;;;;7.80;2.42;;;15.60;99.90;;;;;;6271217;22;20003;-85
2022/07/23 00:12:20;;;;;;;8.15;2.42;;;15.60;99.90;;;;;;6271049;22;19999;-88
2022/07/23 00:14:46;;;;;;;9.63;2.88;;;15.60;99.90;;;;;;6272010;22;20062;-91
2022/07/23 00:17:12;;;;;;;10.27;2.70;;;15.60;99.90;;;;;;6243780;22;20383;-91
2022/07/23 00:19:37;;;;;;;7.35;2.50;;;15.60;99.90;;;;;;6270565;22;20714;-85
2022/07/23 00:22:03;;;;;;;7.30;2.60;;;15.60;99.90;;;;;;6270599;22;20007;-90
2022/07/23 00:24:30;;;;;;;7.78;2.80;;;;;;;;;;6271212;22;20023;-91
2022/07/23 00:26:56;;;;;;;6.53;2.80;;;15.50;99.90;;;;;;6270885;22;20055;-92
2022/07/23 00:29:21;;;;;;;6.30;2.95;;;15.50;99.90;;;;;;6271091;22;20384;-86
2022/07/23 00:31:47;;;;;;;13.15;3.03;;;15.50;99.90;;;;;;6271704;22;20000;-86
2022/07/23 00:34:13;;;;;;;8.73;2.78;;;15.40;99.90;;;;;;6271399;22;20061;-89
2022/07/23 00:36:39;;;;;;;7.25;2.95;;;15.40;99.90;;;;;;6243790;22;20008;-90
2022/07/23 00:39:05;;;;;;;7.20;2.83;;;15.40;99.90;;;;;;6270154;22;19999;-91
2022/07/23 00:41:30;;;;;;;7.72;2.97;;;15.40;99.90;;;;;;6270622;22;20011;-86
2022/07/23 00:44:13;;;;;;;9.43;3.17;;;15.40;99.90;;;;;;6270516;22;20344;-85
2022/07/23 00:46:46;;;;;;;9.07;3.13;;;15.40;99.90;;;;;;6270946;22;20065;-90
2022/07/23 00:49:11;;;;;;;6.85;2.85;;;15.30;99.90;;;;;;6272048;22;20027;-87
2022/07/23 00:51:37;;;;;;;11.88;3.00;;;15.30;99.90;;;;;;6273102;22;20358;-90
2022/07/23 00:54:03;;;;;;;10.63;3.15;;;15.30;99.90;;;;;;6272585;22;20097;-87
2022/07/23 00:56:29;;;;;;;9.02;3.65;;;15.20;99.90;;;;;;6272624;22;20463;-89
2022/07/23 00:58:55;;;;;;;8.27;3.20;;;15.20;99.90;;;;;;6272199;22;20019;-84
2022/07/23 01:01:21;;;;;;;5.72;3.20;;;15.20;99.90;;;;;;6272492;22;20003;-91
2022/07/23 01:03:47;;;;;;;6.05;2.92;;;15.20;99.90;;;;;;6273129;22;20011;-84
2022/07/23 01:06:13;;;;;;;9.35;3.70;;;15.20;99.90;;;;;;6273034;22;20346;-91
2022/07/23 01:08:39;;;;;;;7.38;2.80;;;15.10;99.90;;;;;;6272954;22;20444;-86
2022/07/23 01:11:05;;;;;;;7.80;3.67;;;15.10;99.90;;;;;;6272384;22;19996;-90
2022/07/23 01:13:30;;;;;;;5.78;2.78;;;15.10;99.90;;;;;;6272560;22;20011;-90
2022/07/23 01:15:56;;;;;;;11.10;3.65;;;15.10;99.90;;;;;;6272365;22;19996;-90
2022/07/23 01:18:22;;;;;;;16.15;3.60;;;15.10;99.90;;;;;;6272299;22;20010;-85
2022/07/23 01:20:49;;;;;;;5.53;3.10;;;15.10;99.90;;;;;;6273055;22;20023;-87
2022/07/23 01:23:14;;;;;;;6.70;3.53;;;15.10;99.90;;;;;;6273342;22;20142;-91
2022/07/23 01:25:52;;;;;;;5.55;3.17;;;15.10;99.90;;;;;;6272307;22;20039;-90
2022/07/23 01:28:18;;;;;;;12.43;3.67;;;15.10;99.90;;;;;;6273312;22;19999;-90
2022/07/23 01:30:44;;;;;;;9.07;3.22;;;15.00;99.90;;;;;;6273395;22;20424;-87
2022/07/23 01:33:10;;;;;;;7.25;3.20;;;;;;;;;;6271848;22;20057;-89
2022/07/23 01:35:35;;;;;;;6.90;3.22;;;15.00;99.90;;;;;;6272346;22;20324;-86
2022/07/23 01:38:01;;;;;;;8.65;3.05;;;15.00;99.90;;;;;;6272523;22;20053;-91
2022/07/23 01:40:27;;;;;;;10.85;3.40;;;14.90;99.90;;;;;;6271869;22;20094;-91
2022/07/23 01:42:52;;;;;;;11.65;3.78;;;14.90;99.90;;;;;;6272163;22;20073;-87
2022/07/23 01:45:18;;;;;;;5.28;3.00;;;14.90;99.90;;;;;;6272390;22;20003;-84
2022/07/23 01:47:44;;;;;;;10.57;3.33;;;14.90;99.90;;;;;;6272985;22;19996;-84
2022/07/23 01:50:10;;;;;;;7.28;3.50;;;14.90;99.90;;;;;;6272454;22;20007;-88
2022/07/23 01:52:35;;;;;;;8.63;3.40;;;14.90;99.90;;;;;;6272204;22;20003;-89
2022/07/23 01:55:01;;;;;;;9.30;3.60;;;14.90;99.90;;;;;;6271951;22;20004;-85
2022/07/23 01:57:27;;;;;;;5.78;3.03;;;14.80;99.90;;;;;;6272111;22;20002;-87
2022/07/23 01:59:52;;;;;;;7.00;3.05;;;14.80;99.90;;;;;;6271446;22;20505;-86
2022/07/23 02:02:18;;;;;;;7.50;3.45;;;14.80;99.90;;;;;;6273476;22;19995;-84
2022/07/23 02:04:44;;;;;;;7.25;3.20;;;14.70;99.90;;;;;;6273336;22;20006;-86
2022/07/23 02:07:10;;;;;;;8.60;4.07;;;14.70;99.90;;;;;;6272098;22;19999;-90
2022/07/23 02:09:35;;;;;;;5.03;3.08;;;14.70;99.90;;;;;;6272425;22;20003;-91
2022/07/23 02:12:01;;;;;;;6.68;3.22;;;14.70;99.90;;;;;;6244761;22;20060;-88
2022/07/23 02:14:27;;;;;;;8.10;3.85;;;14.70;99.90;;;;;;6244881;22;20007;-87
2022/07/23 02:16:53;;;;;;;7.60;3.45;;;14.70;99.90;;;;;;6271890;22;20392;-85
2022/07/23 02:19:18;;;;;;;7.18;3.35;;;14.60;99.90;;;;;;6272146;22;20008;-84
2022/07/23 02:21:44;;;;;;;8.52;3.55;;;14.60;99.90;;;;;;6272818;22;20004;-89
2022/07/23 02:24:10;;;;;;;7.00;3.50;;;14.60;99.90;;;;;;6271406;22;20000;-91
2022/07/23 02:26:37;;;;;;;9.13;3.67;;;14.60;99.90;;;;;;6271841;22;19999;-92
2022/07/23 02:29:04;;;;;;;9.40;3.97;;;14.60;99.90;;;;;;6271398;22;20098;-92
2022/07/23 02:31:30;;;;;;;8.10;3.88;;;14.60;99.90;;;;;;6271879;22;20004;-84
2022/07/23 02:33:56;;;;;;;7.15;3.85;;;14.60;99.90;;;;;;6271626;22;20428;-84
2022/07/23 02:36:22;;;;;;;8.55;3.92;;;14.60;99.90;;;;;;6271487;22;20007;-85
2022/07/23 02:38:48;;;;;;;9.85;4.30;;;14.70;99.90;;;;;;6272746;22;20008;-83
2022/07/23 02:41:14;;;;;;;8.85;3.92;;;14.60;99.90;;;;;;6272466;22;20082;-86
2022/07/23 02:43:39;;;;;;;8.38;3.80;;;14.70;99.90;;;;;;6271527;22;20074;-88
2022/07/23 02:46:05;;;;;;;8.48;3.67;;;14.60;99.90;;;;;;6271566;22;20010;-86
2022/07/23 02:48:31;;;;;;;11.18;4.75;;;14.60;99.90;;;;;;6270655;22;20000;-86
2022/07/23 02:50:56;;;;;;;9.98;3.47;;;14.60;99.90;;;;;;6271228;22;20010;-91
2022/07/23 02:53:25;;;;;;;14.85;4.03;;;14.60;99.90;;;;;;6271575;22;19995;-88
2022/07/23 02:55:51;;;;;;;10.05;3.72;;;14.60;99.90;;;;;;6270647;22;20031;-88
2022/07/23 02:58:18;;;;;;;9.88;3.88;;;14.60;99.90;;;;;;6272277;22;20007;-89
2022/07/23 03:00:43;;;;;;;9.48;4.03;;;14.70;99.90;;;;;;6271899;22;20079;-88
2022/07/23 03:03:09;;;;;;;13.63;3.92;;;14.70;99.90;;;;;;6270722;22;20031;-90
2022/07/23 03:05:35;;;;;;;13.85;4.20;;;14.70;99.90;;;;;;6271472;22;20090;-89
2022/07/23 03:08:01;;;;;;;9.75;3.85;;;14.60;99.90;;;;;;6271253;22;20026;-88
2022/07/23 03:10:27;;;;;;;9.20;4.40;;;14.70;99.90;;;;;;6270534;22;20433;-86
2022/07/23 03:12:52;;;;;;;7.97;4.13;;;14.70;99.90;;;;;;6244342;22;20436;-90
2022/07/23 03:15:18;;;;;;;11.25;4.00;;;14.70;99.90;;;;;;6271582;22;20000;-84
2022/07/23 03:17:44;;;;;;;8.27;3.92;;;14.70;99.90;;;;;;6272109;22;20011;-84
2022/07/23 03:20:10;;;;;;;9.57;4.30;;;14.60;99.90;;;;;;6270860;22;20007;-84
2022/07/23 03:22:35;;;;;;;10.07;4.30;;;14.60;99.90;;;;;;6271456;22;20428;-92
2022/07/23 03:25:01;;;;;;;9.20;4.57;;;14.60;99.90;;;;;;6270591;22;20344;-90
2022/07/23 03:27:29;;;;;;;8.07;4.40;;;14.60;99.90;;;;;;6270738;22;20072;-84
2022/07/23 03:29:57;;;;;;;9.27;4.30;;;14.60;99.90;;;;;;6270983;22;19999;-84
2022/07/23 03:32:23;;;;;;;8.98;4.20;;;14.60;99.90;;;;;;6244316;22;20242;-91
2022/07/23 03:34:49;;;;;;;11.88;4.47;;;14.60;99.90;;;;;;6271056;22;20004;-87
2022/07/23 03:37:16;;;;;;;8.27;4.40;;;14.60;99.90;;;;;;6272225;22;20073;-90
2022/07/23 03:39:41;;;;;;;9.15;4.45;;;14.60;99.90;;;;;;6270870;22;20532;-91
2022/07/23 03:42:08;;;;;;;7.75;3.85;;;14.60;99.90;;;;;;6270102;22;20031;-91
2022/07/23 03:44:33;;;;;;;10.10;4.93;;;14.60;99.90;;;;;;6271111;22;20000;-89
2022/07/23 03:46:59;;;;;;;6.72;4.15;;;14.60;99.90;;;;;;6271383;22;19996;-86
2022/07/23 03:49:25;;;;;;;7.78;3.90;;;14.50;99.90;;;;;;6271137;22;20052;-86
2022/07/23 03:51:51;;;;;;;12.77;4.45;;;14.50;99.90;;;;;;6243629;22;20336;-84
2022/07/23 03:54:17;;;;;;;9.95;4.30;;;14.50;99.90;;;;;;6244978;22;20003;-90
2022/07/23 03:56:42;;;;;;;7.38;4.00;;;14.50;99.90;;;;;;6271239;22;20002;-88
2022/07/23 03:59:09;;;;;;;9.90;4.25;;;14.50;99.90;;;;;;6270511;22;20085;-89
2022/07/23 04:01:35;;;;;;;5.07;3.60;;;14.40;99.90;;;;;;6270767;22;20391;-89
2022/07/23 04:04:01;;;;;;;8.88;3.83;;;14.40;99.90;;;;;;6270484;22;19996;-89
2022/07/23 04:06:27;;;;;;;7.05;4.57;;;14.40;99.90;;;;;;6271119;22;20065;-92
2022/07/23 04:08:53;;;;;;;7.43;3.80;;;14.40;99.90;;;;;;6270443;22;20071;-85
2022/07/23 04:11:19;;;;;;;7.32;3.80;;;14.30;99.90;;;;;;6270833;22;20000;-87
2022/07/23 04:13:44;;;;;;;9.63;4.50;;;14.30;99.90;;;;;;6272331;22;19999;-89
2022/07/23 04:16:11;;;;;;;8.57;4.40;;;14.30;99.90;;;;;;6270338;22;20416;-89
2022/07/23 04:18:36;;;;;;;6.70;3.70;;;14.20;99.90;;;;;;6270778;22;20065;-90
2022/07/23 04:21:03;;;;;;;8.52;4.07;;;14.20;99.90;;;;;;6271090;22;20004;-89
2022/07/23 04:23:28;;;;;;;9.50;4.50;;;14.20;99.90;;;;;;6273623;22;20031;-89
2022/07/23 04:25:54;;;;;;;7.30;4.20;;;14.20;99.90;;;;;;6246806;22;20011;-90
2022/07/23 04:28:19;;;;;;;13.63;4.70;;;14.10;99.90;;;;;;6274314;22;20000;-86
2022/07/23 04:30:45;;;;;;;9.77;4.10;;;14.10;99.90;;;;;;6275278;22;20048;-88
2022/07/23 04:33:10;;;;;;;9.20;4.20;;;14.10;99.90;;;;;;6273802;22;20413;-87
2022/07/23 04:35:36;;;;;;;6.78;4.10;;;14.10;99.90;;;;;;6273855;22;19995;-85
2022/07/23 04:38:03;;;;;;;8.57;3.95;;;14.00;99.90;;;;;;6273724;22;20000;-83
2022/07/23 04:40:29;;;;;;;8.02;4.07;;;14.00;99.90;;;;;;6274324;22;20433;-86
2022/07/23 04:42:56;;;;;;;7.47;4.38;;;14.00;99.90;;;;;;6246945;22;20083;-84
2022/07/23 04:45:23;;;;;;;10.43;4.53;;;13.90;99.90;;;;;;6274075;22;19999;-89
2022/07/23 04:47:49;;;;;;;9.75;4.05;;;13.90;99.90;;;;;;6273595;22;19996;-85
2022/07/23 04:50:18;;;;;;;12.13;4.45;;;13.90;99.90;;;;;;6274980;22;20000;-87
2022/07/23 04:52:44;;;;;;;8.18;4.30;;;13.90;99.90;;;;;;6273054;22;20010;-88
2022/07/23 04:55:10;;;;;;;9.48;4.40;;;13.90;99.90;;;;;;6273519;22;20035;-85
2022/07/23 04:57:35;;;;;;;7.90;4.40;;;13.90;99.90;;;;;;6273670;22;20130;-87
2022/07/23 05:00:03;;;;;;;9.38;4.65;;;13.90;99.90;;;;;;6247207;22;20011;-90
2022/07/23 05:02:29;;;;;;;6.40;4.45;;;13.90;99.90;;;;;;6273770;22;20429;-88
2022/07/23 05:04:54;;;;;;;8.15;4.95;;;13.90;99.90;;;;;;6273327;22;20007;-89
2022/07/23 05:07:20;;;;;;;7.85;4.60;;;13.90;99.90;;;;;;6273416;22;19995;-85
2022/07/23 05:09:46;;;;;;;8.70;4.75;;;13.90;99.90;;;;;;6275607;22;20030;-90
2022/07/23 05:12:12;;;;;;;9.73;4.85;;;13.90;99.90;;;;;;6273981;22;20079;-89
2022/07/23 05:14:37;;;;;;;10.50;5.05;;;14.00;99.90;;;;;;6273909;22;20444;-87
2022/07/23 05:17:03;;;;;;;8.13;5.00;;;14.00;99.90;;;;;;6273387;22;20005;-87
2022/07/23 05:19:29;;;;;;;9.82;4.85;;;14.10;99.90;;;;;;6246292;22;20015;-88
2022/07/23 05:21:54;;;;;;;7.78;4.53;;;14.00;99.90;;;;;;6240937;23;20432;-87
2022/07/23 05:24:20;;;;;;;10.32;5.05;;;14.10;99.90;;;;;;6242902;23;20004;-85
2022/07/23 05:26:46;;;;;;;10.48;5.25;;;14.20;99.90;;;;;;6242668;23;20000;-83
2022/07/23 05:29:11;;;;;;;10.80;4.97;;;14.20;99.90;;;;;;6240997;23;20058;-90
2022/07/23 05:31:37;;;;;;;7.68;4.47;;;14.30;99.90;;;;;;6243231;22;20027;-89
2022/07/23 05:34:03;;;;;;;15.68;5.20;;;14.30;99.90;;;;;;6241954;23;20004;-91
2022/07/23 05:36:31;;;;;;;9.85;5.10;;;14.30;99.90;;;;;;6239964;23;20118;-86
2022/07/23 05:38:57;;;;;;;11.07;5.65;;;14.30;99.90;;;;;;6241527;22;20004;-90
2022/07/23 05:41:23;;;;;;;8.95;5.90;;;14.30;99.90;;;;;;6241712;23;20079;-91
2022/07/23 05:43:48;;;;;;;11.13;5.45;;;14.30;99.90;;;;;;6241400;23;20006;-85
2022/07/23 05:46:14;;;;;;;10.68;5.80;;;14.30;99.90;;;;;;6242825;22;20026;-90
2022/07/23 05:48:41;;;;;;;10.20;5.80;;;14.40;99.90;;;;;;6241480;23;19996;-89
2022/07/23 05:51:07;;;;;;;15.65;6.10;;;;;;;;;;6241940;22;20000;-87
2022/07/23 05:53:33;;;;;;;14.48;5.60;;;14.40;99.90;;;;;;6241773;23;20000;-88
2022/07/23 05:55:59;;;;;;;11.40;5.63;;;14.50;99.90;;;;;;6248550;22;20004;-89
2022/07/23 05:58:27;;;;;;;11.65;5.43;;;14.50;99.90;;;;;;6251727;23;20007;-87
2022/07/23 06:00:53;;;;;;;13.75;6.20;;;14.60;99.90;;;;;;6243308;22;20012;-92
2022/07/23 06:03:19;;;;;;;11.75;5.35;;;14.60;99.90;;;;;;6243769;23;20023;-90
2022/07/23 06:05:45;;;;;;;10.15;5.75;;;14.70;99.90;;;;;;6247344;22;20000;-92
2022/07/23 06:08:11;;;;;;;10.10;5.72;;;;;;;;;;6245007;22;20071;-93
2022/07/23 06:10:37;;;;;;;11.15;5.90;;;;;;;;;;6243269;23;20004;-93
2022/07/23 06:13:03;;;;;;;10.30;5.63;;;;;;;;;;6249171;23;20000;-93
2022/07/23 06:15:30;;;;;;;11.25;5.95;;;;;;;;;;6241956;23;19996;-87
2022/07/23 06:17:56;;;;;;;10.93;5.38;;;14.90;99.90;;;;;;6241112;22;20334;-90
2022/07/23 06:20:22;;;;;;;13.70;5.72;;;14.90;99.90;;;;;;6243742;22;20012;-92
2022/07/23 06:22:48;;;;;;;15.00;6.03;;;15.00;99.90;;;;;;6268607;22;20074;-89
2022/07/23 06:25:16;;;;;;;13.07;5.85;;;;;;;;;;6249291;22;20152;-91
2022/07/23 06:27:41;;;;;;;13.88;6.00;;;15.10;99.90;;;;;;6284697;22;19995;-91
2022/07/23 06:30:10;;;;;;;10.25;5.50;;;15.10;99.90;;;;;;6281170;22;20007;-86
2022/07/23 06:32:37;;;;;;;15.02;5.93;;;15.20;99.90;;;;;;6250817;22;20012;-86
2022/07/23 06:35:02;;;;;;;17.35;5.13;;;15.30;99.90;;;;;;6275758;22;20006;-89
2022/07/23 06:37:29;;;;;;;9.80;5.28;;;;;;;;;;6276385;22;20391;-89
2022/07/23 06:39:57;;;;;;;14.63;5.70;;;15.40;99.90;;;;;;6253502;22;20022;-88
2022/07/23 06:42:23;;;;;;;10.07;5.75;;;15.50;99.90;;;;;;6279523;22;20000;-90
2022/07/23 06:44:48;;;;;;;10.27;6.05;;;15.60;99.90;;;;;;6283431;22;20047;-90
2022/07/23 06:47:28;;;;;;;11.88;6.10;;;15.60;99.90;;;;;;6285340;22;20000;-91
2022/07/23 06:49:55;;;;;;;10.05;5.18;;;15.60;99.90;;;;;;6280243;22;20436;-87
2022/07/23 06:52:20;;;;;;;13.82;5.28;;;15.70;99.90;;;;;;6286717;22;19996;-93
2022/07/23 06:54:46;;;;;;;12.07;5.05;;;15.80;99.90;;;;;;6280207;22;19999;-93
2022/07/23 06:57:12;;;;;;;16.05;5.38;;;15.80;99.90;;;;;;6290391;22;20020;-92
2022/07/23 06:59:40;;;;;;;12.35;5.57;;;15.90;99.90;;;;;;6278974;22;20615;-91
2022/07/23 07:02:07;;;;;;;7.63;4.97;;;16.00;99.90;;;;;;6282896;22;20003;-86
2022/07/23 07:04:32;;;;;;;9.82;4.97;;;16.10;99.90;;;;;;6294278;22;20015;-87
2022/07/23 07:07:26;;;;;;;14.45;6.00;;;16.20;99.90;;;;;;6292958;22;20003;-87
2022/07/23 07:09:52;;;;;;;10.63;4.80;;;16.20;99.90;;;;;;6290134;22;20006;-87
2022/07/23 07:12:31;;;;;;;12.80;5.47;;;16.40;99.90;;;;;;6285949;22;20075;-92
2022/07/23 07:15:02;;;;;;;12.55;4.80;;;16.50;99.90;;;;;;6277885;22;20020;-90
2022/07/23 07:17:28;;;;;;;9.90;4.50;;;;;;;;;;6292566;22;20006;-90
2022/07/23 07:20:09;;;;;;;16.38;5.00;;;16.70;99.90;;;;;;6264898;22;20015;-90
2022/07/23 07:22:51;;;;;;;;;;;;;;;;;;;;;
2022/07/23 07:25:18;;;;;;;10.65;4.28;;;19.40;99.90;;;;;;6287058;22;20396;-86
2022/07/23 07:27:46;;;;;;;8.02;4.55;;;17.00;99.90;;;;;;6284773;22;20032;-88
2022/07/23 07:30:13;;;;;;;9.50;4.22;;;17.30;99.90;;;;;;6291784;22;20022;-85
2022/07/23 07:32:40;;;;;;;11.52;4.65;;;17.10;99.90;;;;;;6262917;22;20015;-84
2022/07/23 07:35:07;;;;;;;10.07;4.50;;;17.40;99.90;;;;;;6284449;22;20456;-84
2022/07/23 07:37:32;;;;;;;12.68;4.88;;;17.30;99.90;;;;;;6261204;22;20091;-85
2022/07/23 07:40:02;;;;;;;11.23;4.90;;;17.40;99.90;;;;;;6288456;22;20008;-85
2022/07/23 07:42:35;;;;;;;9.85;4.50;;;17.70;99.90;;;;;;6292431;22;19996;-89
2022/07/23 07:45:05;;;;;;;10.43;4.60;;;17.40;99.90;;;;;;6291985;22;20007;-84
2022/07/23 07:47:31;;;;;;;8.93;4.10;;;17.50;99.90;;;;;;6295802;22;20051;-94
2022/07/23 07:50:03;;;;;;;8.80;4.40;;;17.50;99.90;;;;;;6267643;22;20007;-85
2022/07/23 07:52:36;;;;;;;13.07;4.32;;;17.80;99.90;;;;;;6272414;22;20007;-88
2022/07/23 07:55:07;;;;;;;8.35;3.83;;;17.70;99.90;;;;;;6296769;22;20011;-87
2022/07/23 07:57:33;;;;;;;11.98;4.10;;;17.80;99.90;;;;;;6290560;22;20007;-84
2022/07/23 07:59:59;;;;;;;11.02;3.90;;;18.00;99.90;;;;;;6286801;22;20012;-91
2022/07/23 08:02:27;;;;;;;11.75;3.92;;;18.00;99.90;;;;;;6256481;22;20022;-88
2022/07/23 08:04:53;;;;;;;9.20;3.40;;;;;;;;;;6272277;22;20010;-91
2022/07/23 08:07:19;;;;;;;16.00;3.38;;;18.20;99.90;;;;;;6274113;22;20011;-92
2022/07/23 08:09:45;;;;;;;249.80;18.42;;;18.40;99.90;;;;;;6274887;22;20003;-88
2022/07/23 08:12:11;;;;;;;12.98;3.60;;;18.40;99.90;;;;;;6271546;22;20004;-89
2022/07/23 08:14:36;;;;;;;8.30;3.35;;;18.10;99.90;;;;;;6275903;22;20024;-88
2022/07/23 08:17:03;;;;;;;28.10;6.97;;;;;;;;;;6272427;22;20057;-89
2022/07/23 08:19:29;;;;;;;14.30;3.50;;;;;;;;;;6245069;22;20022;-87
2022/07/23 08:21:54;;;;;;;8.20;3.20;;;18.50;99.90;;;;;;6239856;23;20012;-89
2022/07/23 08:24:20;;;;;;;10.27;3.55;;;18.80;99.90;;;;;;6243634;23;20452;-87
2022/07/23 08:26:46;;;;;;;8.70;3.22;;;19.00;99.90;;;;;;6245512;22;20003;-90
2022/07/23 08:29:12;;;;;;;11.18;3.85;;;19.10;99.90;;;;;;6249859;23;20004;-94
2022/07/23 08:31:40;;;;;;;8.23;3.58;;;19.40;99.90;;;;;;6249660;23;20003;-89
2022/07/23 08:34:05;;;;;;;8.60;3.30;;;19.50;99.90;;;;;;6276815;22;20011;-88
2022/07/23 08:36:35;;;;;;;11.40;3.05;;;19.60;99.90;;;;;;6258322;23;19997;-87
2022/07/23 08:39:08;;;;;;;11.50;3.40;;;19.50;99.90;;;;;;6262523;22;20008;-87
2022/07/23 08:41:41;;;;;;;14.23;3.85;;;19.50;99.90;;;;;;6263431;22;20069;-90
2022/07/23 08:44:53;;;;;;;15.48;3.60;;;19.40;99.90;;;;;;6268774;22;20439;-87
2022/07/23 08:47:46;;;;;;;9.43;3.17;;;19.30;99.90;;;;;;6180515;23;20005;-93
2022/07/23 08:50:13;;;;;;;17.00;3.88;;;19.00;99.90;;;;;;6205162;23;20028;-94
2022/07/23 08:52:40;;;;;;;12.73;4.10;;;19.00;99.90;;;;;;6190398;23;20012;-93
2022/07/23 08:55:06;;;;;;;9.45;3.22;;;19.20;99.90;;;;;;6185664;23;20443;-94
2022/07/23 08:57:32;;;;;;;15.50;3.45;;;19.40;99.90;;;;;;6187098;23;20051;-92
2022/07/23 08:59:58;;;;;;;11.38;3.42;;;19.70;99.90;;;;;;6156044;23;20100;-94
2022/07/23 09:02:24;;;;;;;9.35;3.20;;;20.00;99.90;;;;;;6186189;23;20012;-92
2022/07/23 09:04:53;;;;;;;7.18;3.50;;;19.20;99.90;;;;;;6200808;23;20020;-88
2022/07/23 09:07:21;;;;;;;7.60;2.88;;;20.10;99.90;;;;;;6200355;23;20057;-87
2022/07/23 09:09:46;;;;;;;9.77;3.30;;;20.10;99.90;;;;;;6196458;23;20017;-90
2022/07/23 09:12:12;;;;;;;7.18;2.85;;;20.20;99.90;;;;;;6199358;23;20005;-91
2022/07/23 09:14:43;;;;;;;7.03;2.72;;;20.30;99.90;;;;;;6193199;23;20001;-90
2022/07/23 09:17:10;;;;;;;8.45;3.00;;;20.30;99.90;;;;;;6179362;23;20004;-88
2022/07/23 09:19:36;;;;;;;9.60;3.30;;;20.30;99.90;;;;;;6256777;22;20012;-91
2022/07/23 09:22:22;;;;;;;9.20;2.90;;;20.40;99.90;;;;;;6260065;22;20106;-91
2022/07/23 09:25:15;;;;;;;11.25;3.40;;;20.50;99.90;;;;;;6287674;22;20003;-91
2022/07/23 09:27:53;;;;;;;10.27;3.35;;;20.00;99.90;;;;;;6253277;22;20078;-92
2022/07/23 09:30:24;;;;;;;7.20;2.60;;;20.40;99.90;;;;;;6284838;22;20080;-93
2022/07/23 09:33:11;;;;;;;5.88;2.83;;;20.50;99.90;;;;;;6244079;22;20090;-94
2022/07/23 09:35:46;;;;;;;7.63;2.80;;;20.10;99.90;;;;;;6272693;22;20321;-91
2022/07/23 09:38:12;;;;;;;5.55;2.53;;;19.90;99.90;;;;;;6272654;22;20003;-91
2022/07/23 09:40:38;;;;;;;11.48;2.60;;;20.30;99.90;;;;;;6272905;22;20040;-90
2022/07/23 09:43:04;;;;;;;14.95;2.88;;;20.50;99.90;;;;;;6247456;22;20007;-88
2022/07/23 09:45:29;;;;;;;8.00;2.70;;;20.80;99.90;;;;;;6276012;22;20349;-89
2022/07/23 09:48:14;;;;;;;9.43;2.78;;;20.80;99.90;;;;;;6274739;22;20023;-88
2022/07/23 09:50:42;;;;;;;7.15;2.58;;;20.90;99.90;;;;;;6278887;22;20003;-89
2022/07/23 09:53:08;;;;;;;7.03;2.58;;;21.20;99.90;;;;;;6275183;22;20052;-90
2022/07/23 09:55:37;;;;;;;7.22;2.90;;;21.40;99.90;;;;;;6249266;22;20000;-92
2022/07/23 09:58:05;;;;;;;6.63;2.88;;;21.60;99.90;;;;;;6247138;22;20007;-93
2022/07/23 10:00:31;;;;;;;;;;;21.50;99.90;;;;;;6274586;22;20008;-92
2022/07/23 10:02:58;;;;;;;7.50;2.83;;;21.80;99.90;;;;;;6273003;22;19922;-89
2022/07/23 10:05:25;;;;;;;9.80;3.20;;;21.20;99.90;;;;;;6273652;22;20038;-84
2022/07/23 10:07:52;;;;;;;6.72;2.72;;;21.10;99.90;;;;;;6273081;22;20057;-87
2022/07/23 10:10:18;;;;;;;7.25;2.60;;;21.20;99.90;;;;;;6273937;22;20000;-90
2022/07/23 10:15:10;;;;;;;6.55;2.50;;;21.40;99.90;;;;;;6274271;22;20440;-91
2022/07/23 10:17:36;;;;;;;7.55;2.53;;;21.40;99.90;;;;;;6274195;22;20004;-90
2022/07/23 10:20:04;;;;;;;7.53;2.95;;;21.30;99.90;;;;;;6246910;22;20547;-92
2022/07/23 10:22:36;;;;;;;6.40;2.47;;;21.40;99.90;;;;;;6241035;23;20468;-90
2022/07/23 10:25:31;;;;;;;4.07;2.22;;;21.20;99.90;;;;;;6242111;22;19996;-88
2022/07/23 10:28:12;;;;;;;4.68;2.20;;;21.40;99.90;;;;;;6242115;22;20433;-87
2022/07/23 10:30:56;;;;;;;6.60;2.60;;;21.30;99.90;;;;;;6241606;23;20426;-90
2022/07/23 10:33:46;;;;;;;9.45;2.50;;;21.40;99.90;;;;;;6241903;23;20134;-89
2022/07/23 10:36:21;;;;;;;7.75;2.40;;;21.70;99.90;;;;;;6242111;23;20008;-88
2022/07/23 10:39:21;;;;;;;6.97;2.20;;;21.80;99.90;;;;;;6241304;22;20513;-89
2022/07/23 10:41:47;;;;;;;4.53;2.30;;;22.00;99.90;;;;;;6240681;23;20012;-89
2022/07/23 10:44:23;;;;;;;5.72;2.05;;;22.60;99.90;;;;;;6265979;22;20004;-89
2022/07/23 10:49:42;;;;;;;5.70;2.35;;;22.40;99.90;;;;;;6242519;23;20011;-91
2022/07/23 10:52:14;;;;;;;9.43;2.63;;;22.30;99.90;;;;;;6243062;22;20000;-91
2022/07/23 10:54:50;;;;;;;5.60;2.13;;;22.40;99.90;;;;;;6241952;23;20027;-92
2022/07/23 10:57:18;;;;;;;5.85;2.28;;;22.30;99.90;;;;;;6241934;22;20028;-89
2022/07/23 11:02:32;;;;;;;6.15;2.20;;;22.20;99.90;;;;;;6244696;23;20013;-91
2022/07/23 11:05:35;;;;;;;6.70;2.17;;;22.40;99.90;;;;;;6270591;22;20014;-90
2022/07/23 11:08:04;;;;;;;6.82;2.42;;;22.60;99.90;;;;;;6264323;23;20000;-93
2022/07/23 11:10:35;;;;;;;5.80;1.90;;;22.70;99.90;;;;;;6252826;23;20367;-88
2022/07/23 11:13:22;;;;;;;4.80;2.00;;;22.70;99.90;;;;;;6243601;23;20322;-89
2022/07/23 11:16:12;;;;;;;3.70;2.00;;;22.70;99.90;;;;;;6257059;23;20004;-92
2022/07/23 11:18:46;;;;;;;6.43;2.15;;;22.70;99.90;;;;;;6261050;22;20008;-90
2022/07/23 11:21:21;;;;;;;8.43;1.90;;;22.70;99.90;;;;;;6255393;22;20004;-92
2022/07/23 11:24:09;;;;;;;9.73;2.40;;;22.80;99.90;;;;;;6277581;22;20440;-87
2022/07/23 11:26:41;;;;;;;7.28;2.08;;;22.90;99.90;;;;;;6254810;22;20336;-88
2022/07/23 11:29:46;;;;;;;6.38;2.58;;;23.00;99.90;;;;;;6279234;22;20007;-90
2022/07/23 11:32:30;;;;;;;7.38;2.40;;;23.20;99.90;;;;;;6271841;22;20003;-84
2022/07/23 11:34:56;;;;;;;4.30;1.80;;;23.10;99.90;;;;;;6282308;22;20004;-83
2022/07/23 11:38:12;;;;;;;7.82;1.92;;;23.00;99.90;;;;;;6255323;22;20000;-83
2022/07/23 11:40:39;;;;;;;4.95;1.73;;;22.90;99.90;;;;;;6280178;22;20015;-84
2022/07/23 11:43:07;;;;;;;3.00;1.80;;;23.20;99.90;;;;;;6283750;22;20000;-85
2022/07/23 11:45:37;;;;;;;5.30;1.67;;;24.70;99.90;;;;;;6259636;22;20011;-86
2022/07/23 11:48:05;;;;;;;2.92;1.60;;;23.30;99.90;;;;;;6265043;22;20455;-84
2022/07/23 11:50:37;;;;;;;4.38;1.60;;;23.20;99.90;;;;;;6258972;22;20057;-84
2022/07/23 11:53:11;;;;;;;6.63;1.75;;;23.30;99.90;;;;;;6289524;22;20056;-84
2022/07/23 11:55:37;;;;;;;5.15;1.70;;;23.40;99.90;;;;;;6291807;22;19996;-84
2022/07/23 11:58:05;;;;;;;3.60;1.50;;;23.40;99.90;;;;;;6274414;22;20004;-85
2022/07/23 12:01:00;;;;;;;2.55;1.70;;;23.60;99.90;;;;;;6301311;22;20000;-84
2022/07/23 12:03:34;;;;;;;3.47;1.90;;;23.50;99.90;;;;;;6212720;23;20005;-84
2022/07/23 12:06:10;;;;;;;6.10;1.80;;;23.40;99.90;;;;;;6210381;23;20029;-84
2022/07/23 12:08:41;;;;;;;4.63;2.20;;;23.50;99.90;;;;;;6196847;23;20009;-84
2022/07/23 12:11:07;;;;;;;2.85;1.45;;;23.50;99.90;;;;;;6194910;23;20001;-84
2022/07/23 12:13:42;;;;;;;4.97;1.80;;;23.60;99.90;;;;;;6204221;23;20538;-85
2022/07/23 12:16:10;;;;;;;;;;;23.60;99.90;;;;;;6203403;23;20028;-86
2022/07/23 12:18:36;;;;;;;3.58;1.60;;;23.70;99.90;;;;;;6202506;23;19908;-85
2022/07/23 12:21:05;;;;;;;9.60;1.90;;;23.70;99.90;;;;;;6202724;23;20017;-84
2022/07/23 12:23:31;;;;;;;2.50;1.40;;;23.80;99.90;;;;;;6195477;23;20013;-85
2022/07/23 12:26:02;;;;;;;5.13;1.75;;;23.80;99.90;;;;;;6168597;23;20001;-84
2022/07/23 12:28:32;;;;;;;4.03;1.50;;;23.90;99.90;;;;;;6175580;23;20001;-85
2022/07/23 12:30:59;;;;;;;2.67;1.60;;;23.80;99.90;;;;;;6201313;23;20012;-85
2022/07/23 12:33:26;;;;;;;2.60;1.45;;;23.80;99.90;;;;;;6187375;23;20007;-85
2022/07/23 12:35:53;;;;;;;5.20;1.48;;;23.90;99.90;;;;;;6266702;23;20008;-85
2022/07/23 12:38:22;;;;;;;5.28;1.92;;;23.90;99.90;;;;;;6263883;23;20016;-82
2022/07/23 12:41:06;;;;;;;5.20;1.80;;;23.90;99.90;;;;;;6237399;23;20012;-85
2022/07/23 12:43:43;;;;;;;6.90;1.67;;;23.90;99.90;;;;;;6263223;23;20007;-84
2022/07/23 12:46:17;;;;;;;3.13;1.60;;;24.10;99.90;;;;;;6241293;23;20017;-85
2022/07/23 12:48:54;;;;;;;4.45;1.80;;;24.20;99.90;;;;;;6260423;23;20004;-84
2022/07/23 12:51:24;;;;;;;4.47;1.60;;;24.10;99.90;;;;;;6231488;23;20012;-84
2022/07/23 12:53:55;;;;;;;2.80;1.60;;;24.20;99.90;;;;;;6230641;23;20004;-84
2022/07/23 12:56:33;;;;;;;3.78;1.52;;;24.20;99.90;;;;;;6255745;23;20023;-84
2022/07/23 12:59:08;;;;;;;2.67;1.50;;;24.40;99.90;;;;;;6256891;23;20007;-84
2022/07/23 13:01:36;;;;;;;2.97;1.70;;;24.40;99.90;;;;;;6262049;23;20010;-85
2022/07/23 13:04:08;;;;;;;3.58;1.70;;;24.60;99.90;;;;;;6268635;22;20029;-84
2022/07/23 13:06:37;;;;;;;3.40;1.42;;;24.70;99.90;;;;;;6264925;23;20011;-84